createdAt,value
2022-09-20T00:00:52.054Z,22.40
2022-09-20T00:03:18.654Z,22.40
2022-09-20T00:05:45.735Z,22.40
2022-09-20T00:08:14.275Z,22.40
2022-09-20T00:10:42.848Z,22.40
2022-09-20T00:13:11.282Z,22.40
2022-09-20T00:15:42.466Z,22.40
2022-09-20T00:18:09.384Z,22.40
2022-09-20T00:20:36.031Z,22.40
2022-09-20T00:23:02.588Z,22.30
2022-09-20T00:25:29.727Z,22.40
2022-09-20T00:27:56.275Z,22.30
2022-09-20T00:30:22.874Z,22.40
2022-09-20T00:32:49.719Z,22.30
2022-09-20T00:35:16.418Z,22.40
2022-09-20T00:37:43.193Z,22.40
2022-09-20T00:40:15.172Z,22.30
2022-09-20T00:42:41.956Z,22.40
2022-09-20T00:45:20.960Z,22.30
2022-09-20T00:47:54.610Z,22.30
2022-09-20T00:50:25.933Z,22.30
2022-09-20T00:52:57.035Z,22.30
2022-09-20T00:55:23.811Z,22.30
2022-09-20T00:57:50.375Z,22.30
2022-09-20T01:00:16.968Z,22.30
2022-09-20T01:02:48.543Z,22.30
2022-09-20T01:05:15.274Z,22.30
2022-09-20T01:07:42.595Z,22.30
2022-09-20T01:10:09.260Z,22.30
2022-09-20T01:12:36.562Z,22.30
2022-09-20T01:15:04.437Z,22.30
2022-09-20T01:17:32.659Z,22.30
2022-09-20T01:20:14.628Z,22.30
2022-09-20T01:23:04.188Z,22.30
2022-09-20T01:25:45.034Z,22.30
2022-09-20T01:28:11.582Z,22.30
2022-09-20T01:30:42.579Z,22.30
2022-09-20T01:33:21.181Z,22.30
2022-09-20T01:35:48.108Z,22.30
2022-09-20T01:38:37.486Z,22.30
2022-09-20T01:41:06.711Z,22.20
2022-09-20T01:43:41.307Z,22.30
2022-09-20T01:46:20.297Z,22.20
2022-09-20T01:48:47.455Z,22.20
2022-09-20T01:51:44.662Z,22.30
2022-09-20T01:54:20.329Z,22.20
2022-09-20T01:56:54.980Z,22.20
2022-09-20T01:59:30.874Z,22.20
2022-09-20T02:02:06.480Z,22.20
2022-09-20T02:04:44.527Z,22.20
2022-09-20T02:07:32.618Z,22.20
2022-09-20T02:10:26.116Z,22.20
2022-09-20T02:13:29.407Z,22.20
2022-09-20T02:16:16.487Z,22.20
2022-09-20T02:19:11.718Z,22.20
2022-09-20T02:22:07.189Z,22.10
2022-09-20T02:24:52.587Z,22.20
2022-09-20T02:27:36.165Z,22.20
2022-09-20T02:30:30.666Z,22.20
2022-09-20T02:33:28.352Z,22.10
2022-09-20T02:36:13.024Z,22.10
2022-09-20T02:38:43.103Z,22.10
2022-09-20T02:41:38.414Z,22.10
2022-09-20T02:44:12.224Z,22.10
2022-09-20T02:46:53.913Z,22.10
2022-09-20T02:49:42.358Z,22.10
2022-09-20T02:52:31.768Z,22.10
2022-09-20T02:55:15.528Z,22.10
2022-09-20T02:58:14.620Z,22.10
2022-09-20T03:00:54.739Z,22.10
2022-09-20T03:03:40.292Z,22.10
2022-09-20T03:06:42.759Z,22.10
2022-09-20T03:09:29.547Z,22.10
2022-09-20T03:12:30.249Z,22.10
2022-09-20T03:15:18.708Z,22.10
2022-09-20T03:18:16.335Z,22.10
2022-09-20T03:21:05.529Z,22.00
2022-09-20T03:23:54.905Z,22.00
2022-09-20T03:26:44.807Z,22.00
2022-09-20T03:29:42.355Z,22.00
2022-09-20T03:32:16.496Z,22.00
2022-09-20T03:34:49.844Z,22.10
2022-09-20T03:37:50.898Z,22.00
2022-09-20T03:40:44.188Z,22.00
2022-09-20T03:43:36.068Z,22.00
2022-09-20T03:46:09.369Z,22.00
2022-09-20T03:48:57.296Z,22.00
2022-09-20T03:51:34.366Z,22.00
2022-09-20T03:54:06.894Z,22.00
2022-09-20T03:56:36.774Z,22.00
2022-09-20T03:59:19.818Z,22.00
2022-09-20T04:01:55.253Z,22.00
2022-09-20T04:04:49.841Z,22.00
2022-09-20T04:07:38.879Z,22.00
2022-09-20T04:10:16.065Z,22.00
2022-09-20T04:13:04.241Z,22.00
2022-09-20T04:15:49.379Z,22.00
2022-09-20T04:18:47.960Z,22.00
2022-09-20T04:21:30.603Z,22.00
2022-09-20T04:24:01.315Z,22.00
2022-09-20T04:26:32.830Z,22.00
2022-09-20T04:29:26.072Z,22.00
2022-09-20T04:32:12.750Z,22.00
2022-09-20T04:35:04.511Z,22.00
2022-09-20T04:37:33.391Z,21.90
2022-09-20T04:40:10.196Z,21.90
2022-09-20T04:43:13.098Z,22.00
2022-09-20T04:46:01.813Z,21.90
2022-09-20T04:48:38.676Z,21.90
2022-09-20T04:51:42.392Z,22.00
2022-09-20T04:54:43.782Z,21.90
2022-09-20T04:57:29.349Z,22.00
2022-09-20T05:00:08.432Z,22.20
2022-09-20T05:03:07.114Z,22.80
2022-09-20T05:05:57.238Z,23.60
2022-09-20T05:08:44.340Z,24.70
2022-09-20T05:11:21.775Z,25.70
2022-09-20T05:14:07.530Z,26.60
2022-09-20T05:16:34.242Z,27.20
2022-09-20T05:19:39.625Z,27.80
2022-09-20T05:22:31.168Z,28.40
2022-09-20T05:25:38.291Z,29.10
2022-09-20T05:28:12.307Z,29.80
2022-09-20T05:30:50.387Z,30.40
2022-09-20T05:33:52.546Z,31.00
2022-09-20T05:36:39.931Z,31.60
2022-09-20T05:39:33.469Z,32.00
2022-09-20T05:42:23.957Z,32.30
2022-09-20T05:45:13.436Z,32.50
2022-09-20T05:47:58.936Z,32.60
2022-09-20T05:51:03.721Z,32.50
2022-09-20T05:54:01.654Z,32.40
2022-09-20T05:56:33.734Z,32.20
2022-09-20T05:59:21.779Z,32.00
2022-09-20T06:02:16.536Z,31.70
2022-09-20T06:04:50.423Z,31.40
2022-09-20T06:07:30.948Z,31.00
2022-09-20T06:10:15.199Z,30.70
2022-09-20T06:13:24.156Z,30.40
2022-09-20T06:16:13.943Z,30.00
2022-09-20T06:18:50.379Z,29.70
2022-09-20T06:21:29.363Z,29.40
2022-09-20T06:24:00.584Z,29.10
2022-09-20T06:26:35.642Z,28.90
2022-09-20T06:29:06.623Z,28.50
2022-09-20T06:31:33.171Z,28.30
2022-09-20T06:34:13.192Z,28.10
2022-09-20T06:36:59.871Z,27.80
2022-09-20T06:40:15.454Z,27.60
2022-09-20T06:42:44.424Z,27.30
2022-09-20T06:45:11.102Z,27.10
2022-09-20T06:47:38.843Z,26.90
2022-09-20T06:50:06.292Z,26.70
2022-09-20T06:52:32.983Z,26.50
2022-09-20T06:54:59.655Z,26.40
2022-09-20T06:57:35.401Z,26.20
2022-09-20T07:00:02.465Z,26.00
2022-09-20T07:02:29.072Z,26.00
2022-09-20T07:04:57.379Z,26.00
2022-09-20T07:07:25.459Z,26.30
2022-09-20T07:09:52.062Z,26.80
2022-09-20T07:12:18.685Z,27.30
2022-09-20T07:14:45.476Z,27.80
2022-09-20T07:17:13.193Z,28.40
2022-09-20T07:19:39.767Z,28.90
2022-09-20T07:22:06.372Z,29.40
2022-09-20T07:24:32.996Z,29.70
2022-09-20T07:27:01.315Z,29.90
2022-09-20T07:29:28.295Z,30.10
2022-09-20T07:31:55.775Z,30.40
2022-09-20T07:34:22.507Z,30.60
2022-09-20T07:36:50.158Z,30.80
2022-09-20T07:39:20.024Z,31.00
2022-09-20T07:41:48.355Z,31.10
2022-09-20T07:44:24.259Z,31.10
2022-09-20T07:46:55.341Z,31.10
2022-09-20T07:49:22.509Z,31.00
2022-09-20T07:51:49.755Z,30.90
2022-09-20T07:54:16.459Z,30.70
2022-09-20T07:56:43.756Z,30.50
2022-09-20T07:59:10.507Z,30.30
2022-09-20T08:01:37.814Z,30.10
2022-09-20T08:04:05.666Z,29.80
2022-09-20T08:06:32.465Z,29.60
2022-09-20T08:08:59.212Z,29.30
2022-09-20T08:11:28.871Z,29.10
2022-09-20T08:14:11.312Z,28.90
2022-09-20T08:16:46.349Z,28.60
2022-09-20T08:19:17.599Z,28.40
2022-09-20T08:21:44.688Z,28.10
2022-09-20T08:24:11.531Z,27.90
2022-09-20T08:26:38.229Z,27.70
2022-09-20T08:29:08.211Z,27.60
2022-09-20T08:31:37.122Z,27.40
2022-09-20T08:34:08.686Z,27.20
2022-09-20T08:36:37.148Z,27.00
2022-09-20T08:42:10.983Z,26.70
2022-09-20T08:44:47.680Z,26.60
2022-09-20T08:47:30.961Z,26.50
2022-09-20T08:49:57.803Z,26.30
2022-09-20T08:52:35.882Z,26.20
2022-09-20T08:55:07.541Z,26.10
2022-09-20T08:57:35.448Z,26.00
2022-09-20T09:00:02.652Z,25.90
2022-09-20T09:02:30.796Z,25.80
2022-09-20T09:04:57.596Z,25.70
2022-09-20T09:07:24.287Z,25.60
2022-09-20T09:09:52.785Z,25.60
2022-09-20T09:12:27.178Z,25.60
2022-09-20T09:14:57.252Z,25.50
2022-09-20T09:17:28.486Z,25.40
2022-09-20T09:19:59.268Z,25.40
2022-09-20T09:22:35.237Z,25.30
2022-09-20T09:25:17.192Z,25.20
2022-09-20T09:27:57.999Z,25.20
2022-09-20T09:30:31.649Z,25.10
2022-09-20T09:33:24.037Z,25.10
2022-09-20T09:35:59.163Z,25.00
2022-09-20T09:38:30.601Z,25.00
2022-09-20T09:40:59.006Z,25.00
2022-09-20T09:43:31.148Z,24.90
2022-09-20T09:46:18.628Z,24.90
2022-09-20T09:48:49.725Z,24.80
2022-09-20T09:51:17.730Z,24.80
2022-09-20T09:53:44.929Z,24.80
2022-09-20T09:56:29.977Z,24.80
2022-09-20T09:59:10.650Z,24.80
2022-09-20T10:01:44.189Z,24.70
2022-09-20T10:04:22.524Z,24.70
2022-09-20T10:06:58.796Z,24.70
2022-09-20T10:09:46.916Z,24.70
2022-09-20T10:12:30.061Z,24.60
2022-09-20T10:15:23.008Z,24.60
2022-09-20T10:18:17.159Z,24.60
2022-09-20T10:20:53.169Z,24.60
2022-09-20T10:23:45.185Z,24.60
2022-09-20T10:26:36.928Z,24.60
2022-09-20T10:29:15.527Z,24.50
2022-09-20T10:31:55.488Z,24.50
2022-09-20T10:34:41.818Z,24.50
2022-09-20T10:37:35.755Z,24.50
2022-09-20T10:40:08.251Z,24.50
2022-09-20T10:42:57.051Z,24.50
2022-09-20T10:45:59.201Z,24.50
2022-09-20T10:48:41.375Z,24.50
2022-09-20T10:51:17.375Z,24.50
2022-09-20T10:54:25.620Z,24.50
2022-09-20T10:57:05.467Z,24.50
2022-09-20T10:59:51.281Z,24.50
2022-09-20T11:02:52.340Z,24.50
2022-09-20T11:05:30.679Z,24.50
2022-09-20T11:08:11.878Z,24.50
2022-09-20T11:10:47.080Z,24.50
2022-09-20T11:13:38.517Z,24.50
2022-09-20T11:16:23.122Z,24.50
2022-09-20T11:19:02.129Z,24.50
2022-09-20T11:21:36.413Z,24.50
2022-09-20T11:24:22.204Z,24.50
2022-09-20T11:26:52.009Z,24.40
2022-09-20T11:29:36.989Z,24.50
2022-09-20T11:32:14.593Z,24.40
2022-09-20T11:34:48.160Z,24.50
2022-09-20T11:37:14.745Z,24.50
2022-09-20T11:39:44.271Z,24.50
2022-09-20T11:42:14.415Z,24.50
2022-09-20T11:44:41.495Z,24.40
2022-09-20T11:47:52.795Z,24.50
2022-09-20T11:50:39.761Z,24.40
2022-09-20T11:53:19.081Z,24.50
2022-09-20T11:56:07.020Z,24.40
2022-09-20T11:58:53.216Z,24.40
2022-09-20T12:01:28.533Z,24.40
2022-09-20T12:04:28.283Z,24.40
2022-09-20T12:06:47.131Z,24.40
2022-09-20T12:09:29.049Z,24.40
2022-09-20T12:11:55.617Z,24.40
2022-09-20T12:14:23.302Z,24.40
2022-09-20T12:16:50.369Z,24.50
2022-09-20T12:19:32.843Z,24.40
2022-09-20T12:21:59.478Z,24.40
2022-09-20T12:24:36.689Z,24.50
2022-09-20T12:27:26.228Z,24.50
2022-09-20T12:30:14.951Z,24.50
2022-09-20T12:32:47.659Z,24.50
2022-09-20T12:35:35.792Z,24.50
2022-09-20T12:38:31.148Z,24.50
2022-09-20T12:41:14.694Z,24.50
2022-09-20T12:43:56.635Z,24.50
2022-09-20T12:46:26.813Z,24.50
2022-09-20T12:49:38.835Z,24.50
2022-09-20T12:52:23.931Z,24.50
2022-09-20T12:54:52.314Z,24.50
2022-09-20T12:57:27.301Z,24.50
2022-09-20T12:59:56.423Z,24.50
2022-09-20T13:02:52.830Z,24.50
2022-09-20T13:05:33.892Z,24.50
2022-09-20T13:08:13.058Z,24.50
2022-09-20T13:10:43.394Z,24.50
2022-09-20T13:13:23.099Z,24.50
2022-09-20T13:15:52.368Z,24.50
2022-09-20T13:18:18.992Z,24.40
2022-09-20T13:20:45.816Z,24.40
2022-09-20T13:23:20.629Z,24.40
2022-09-20T13:25:47.566Z,24.40
2022-09-20T13:28:21.967Z,24.40
2022-09-20T13:30:48.579Z,24.40
2022-09-20T13:33:22.745Z,24.40
2022-09-20T13:35:52.332Z,24.30
2022-09-20T13:38:24.311Z,24.30
2022-09-20T13:40:51.349Z,24.30
2022-09-20T13:43:37.891Z,24.20
2022-09-20T13:46:18.397Z,24.20
2022-09-20T13:48:48.683Z,24.20
2022-09-20T13:51:20.715Z,24.20
2022-09-20T13:53:47.533Z,24.10
2022-09-20T13:56:25.525Z,24.10
2022-09-20T13:58:52.716Z,24.10
2022-09-20T14:01:33.095Z,24.30
2022-09-20T14:04:21.319Z,24.60
2022-09-20T14:06:48.489Z,25.10
2022-09-20T14:09:28.683Z,25.70
2022-09-20T14:11:55.955Z,26.20
2022-09-20T14:14:23.567Z,26.70
2022-09-20T14:16:51.915Z,27.20
2022-09-20T14:19:20.273Z,27.70
2022-09-20T14:21:47.605Z,28.10
2022-09-20T14:24:14.379Z,28.50
2022-09-20T14:26:42.141Z,28.80
2022-09-20T14:29:27.669Z,29.00
2022-09-20T14:31:54.372Z,29.10
2022-09-20T14:34:21.200Z,29.30
2022-09-20T14:36:51.041Z,29.30
2022-09-20T14:39:18.981Z,29.30
2022-09-20T14:41:48.333Z,29.20
2022-09-20T14:44:28.253Z,29.10
2022-09-20T14:46:54.864Z,29.00
2022-09-20T14:49:25.089Z,28.90
2022-09-20T14:51:52.468Z,28.80
2022-09-20T14:54:26.009Z,28.60
2022-09-20T14:56:57.413Z,28.40
2022-09-20T14:59:28.245Z,28.30
2022-09-20T15:02:11.690Z,28.10
2022-09-20T15:04:38.317Z,27.90
2022-09-20T15:07:07.239Z,27.70
2022-09-20T15:09:33.897Z,27.60
2022-09-20T15:12:04.303Z,27.40
2022-09-20T15:14:35.056Z,27.30
2022-09-20T15:17:03.985Z,27.10
2022-09-20T15:19:30.648Z,27.00
2022-09-20T15:21:57.257Z,26.90
2022-09-20T15:24:23.907Z,26.70
2022-09-20T15:26:50.599Z,26.60
2022-09-20T15:29:17.408Z,26.50
2022-09-20T15:31:46.225Z,26.40
2022-09-20T15:34:12.969Z,26.30
2022-09-20T15:36:40.601Z,26.20
2022-09-20T15:39:07.648Z,26.10
2022-09-20T15:41:35.351Z,26.00
2022-09-20T15:44:03.486Z,25.90
2022-09-20T15:46:30.300Z,25.80
2022-09-20T15:48:56.889Z,25.70
2022-09-20T15:51:23.452Z,25.60
2022-09-20T15:53:57.628Z,25.60
2022-09-20T15:56:31.947Z,25.50
2022-09-20T15:58:59.640Z,25.40
2022-09-20T16:01:31.938Z,25.30
2022-09-20T16:03:58.802Z,25.30
2022-09-20T16:06:25.692Z,25.20
2022-09-20T16:08:52.367Z,25.10
2022-09-20T16:11:22.639Z,25.00
2022-09-20T16:13:54.724Z,25.00
2022-09-20T16:16:21.488Z,24.90
2022-09-20T16:19:07.191Z,24.80
2022-09-20T16:21:34.233Z,24.80
2022-09-20T16:24:00.924Z,24.70
2022-09-20T16:26:28.778Z,24.70
2022-09-20T16:28:55.725Z,24.60
2022-09-20T16:31:29.175Z,24.60
2022-09-20T16:33:55.862Z,24.50
2022-09-20T16:36:27.484Z,24.50
2022-09-20T16:38:55.238Z,24.40
2022-09-20T16:41:23.277Z,24.40
2022-09-20T16:43:52.109Z,24.30
2022-09-20T16:46:22.277Z,24.30
2022-09-20T16:48:53.026Z,24.30
2022-09-20T16:51:21.951Z,24.20
2022-09-20T16:53:48.551Z,24.20
2022-09-20T16:56:25.653Z,24.20
2022-09-20T16:58:52.560Z,24.10
2022-09-20T17:01:19.230Z,24.10
2022-09-20T17:03:47.096Z,24.00
2022-09-20T17:06:14.776Z,24.00
2022-09-20T17:08:41.924Z,24.00
2022-09-20T17:11:14.038Z,23.90
2022-09-20T17:13:41.406Z,23.90
2022-09-20T17:16:21.488Z,23.90
2022-09-20T17:18:54.232Z,23.80
2022-09-20T17:21:21.219Z,23.80
2022-09-20T17:23:51.102Z,23.80
2022-09-20T17:26:19.933Z,23.80
2022-09-20T17:28:47.476Z,23.70
2022-09-20T17:31:16.237Z,23.70
2022-09-20T17:33:42.937Z,23.70
2022-09-20T17:36:13.018Z,23.70
2022-09-20T17:38:39.789Z,23.70
2022-09-20T17:41:11.118Z,23.60
2022-09-20T17:43:38.002Z,23.60
2022-09-20T17:46:11.036Z,23.60
2022-09-20T17:48:37.849Z,23.50
2022-09-20T17:51:06.459Z,23.50
2022-09-20T17:53:35.887Z,23.50
2022-09-20T17:56:02.852Z,23.50
2022-09-20T17:58:29.424Z,23.50
2022-09-20T18:01:02.413Z,23.50
2022-09-20T18:03:29.129Z,23.40
2022-09-20T18:05:55.724Z,23.40
2022-09-20T18:08:22.268Z,23.40
2022-09-20T18:10:58.715Z,23.40
2022-09-20T18:13:27.327Z,23.40
2022-09-20T18:15:54.647Z,23.40
2022-09-20T18:18:21.303Z,23.30
2022-09-20T18:20:48.451Z,23.30
2022-09-20T18:23:15.048Z,23.30
2022-09-20T18:26:00.578Z,23.30
2022-09-20T18:28:27.488Z,23.30
2022-09-20T18:31:02.183Z,23.20
2022-09-20T18:33:32.502Z,23.20
2022-09-20T18:36:01.311Z,23.20
2022-09-20T18:38:27.930Z,23.20
2022-09-20T18:40:57.540Z,23.20
2022-09-20T18:43:24.237Z,23.20
2022-09-20T18:45:54.659Z,23.20
2022-09-20T18:48:24.918Z,23.20
2022-09-20T18:51:02.208Z,23.10
2022-09-20T18:53:33.021Z,23.10
2022-09-20T18:56:10.017Z,23.10
2022-09-20T18:58:38.445Z,23.10
2022-09-20T19:01:42.904Z,23.10
2022-09-20T19:04:22.896Z,23.10
2022-09-20T19:07:25.744Z,23.10
2022-09-20T19:10:29.303Z,23.10
2022-09-20T19:13:44.932Z,23.00
2022-09-20T19:16:27.829Z,23.00
2022-09-20T19:19:02.971Z,23.00
2022-09-20T19:21:58.546Z,23.00
2022-09-20T19:24:34.157Z,23.00
2022-09-20T19:27:00.846Z,23.00
2022-09-20T19:29:28.375Z,23.00
2022-09-20T19:31:58.866Z,22.90
2022-09-20T19:34:29.726Z,22.90
2022-09-20T19:37:09.971Z,22.90
2022-09-20T19:39:54.653Z,22.90
2022-09-20T19:42:53.923Z,22.90
2022-09-20T19:45:46.718Z,22.90
2022-09-20T19:48:38.991Z,22.90
2022-09-20T19:51:10.114Z,22.90
2022-09-20T19:53:36.982Z,22.90
2022-09-20T19:56:24.758Z,22.90
2022-09-20T19:58:53.174Z,22.80
2022-09-20T20:01:22.429Z,22.90
2022-09-20T20:03:50.578Z,22.80
2022-09-20T20:06:41.048Z,22.80
2022-09-20T20:09:19.030Z,22.80
2022-09-20T20:12:14.547Z,22.80
2022-09-20T20:14:59.189Z,22.80
2022-09-20T20:17:50.899Z,22.80
2022-09-20T20:20:25.940Z,22.80
2022-09-20T20:23:32.336Z,22.80
2022-09-20T20:26:14.351Z,22.80
2022-09-20T20:28:41.092Z,22.80
2022-09-20T20:31:12.364Z,22.80
2022-09-20T20:33:39.198Z,22.70
2022-09-20T20:36:08.877Z,22.70
2022-09-20T20:38:37.460Z,22.70
2022-09-20T20:41:09.405Z,22.70
2022-09-20T20:43:37.598Z,22.70
2022-09-20T20:46:04.958Z,22.70
2022-09-20T20:48:31.595Z,22.70
2022-09-20T20:51:11.841Z,22.70
2022-09-20T20:53:46.923Z,22.70
2022-09-20T20:56:29.790Z,22.70
2022-09-20T20:59:00.603Z,22.70
2022-09-20T21:01:31.407Z,22.70
2022-09-20T21:03:58.309Z,22.60
2022-09-20T21:06:31.894Z,22.60
2022-09-20T21:08:58.537Z,22.60
2022-09-20T21:11:29.269Z,22.60
2022-09-20T21:13:59.552Z,22.60
2022-09-20T21:16:35.040Z,22.60
2022-09-20T21:19:01.825Z,22.60
2022-09-20T21:21:30.053Z,22.60
2022-09-20T21:24:01.281Z,22.60
2022-09-20T21:26:31.874Z,22.50
2022-09-20T21:28:59.764Z,22.50
2022-09-20T21:31:27.822Z,22.60
2022-09-20T21:33:54.890Z,22.50
2022-09-20T21:36:23.827Z,22.50
2022-09-20T21:38:50.426Z,22.50
2022-09-20T21:41:18.766Z,22.50
2022-09-20T21:43:46.033Z,22.50
2022-09-20T21:46:13.936Z,22.50
2022-09-20T21:48:40.930Z,22.50
2022-09-20T21:51:09.007Z,22.50
2022-09-20T21:53:35.657Z,22.50
2022-09-20T21:56:03.827Z,22.50
2022-09-20T21:58:30.489Z,22.50
2022-09-20T22:01:16.921Z,22.50
2022-09-20T22:03:45.554Z,22.50
2022-09-20T22:06:20.139Z,22.50
2022-09-20T22:08:47.740Z,22.40
2022-09-20T22:11:16.026Z,22.40
2022-09-20T22:13:46.816Z,22.50
2022-09-20T22:16:15.391Z,22.40
2022-09-20T22:18:42.963Z,22.40
2022-09-20T22:21:23.218Z,22.40
2022-09-20T22:23:50.799Z,22.40
2022-09-20T22:26:19.109Z,22.40
2022-09-20T22:28:45.733Z,22.40
2022-09-20T22:31:14.698Z,22.40
2022-09-20T22:33:53.757Z,22.40
2022-09-20T22:36:22.360Z,22.40
2022-09-20T22:38:49.159Z,22.40
2022-09-20T22:41:16.728Z,22.40
2022-09-20T22:43:43.559Z,22.40
2022-09-20T22:46:11.662Z,22.40
2022-09-20T22:48:38.615Z,22.40
2022-09-20T22:51:09.917Z,22.30
2022-09-20T22:53:36.622Z,22.30
2022-09-20T22:56:03.406Z,22.30
2022-09-20T22:58:31.804Z,22.30
2022-09-20T23:01:12.368Z,22.30
2022-09-20T23:03:39.949Z,22.30
2022-09-20T23:06:14.563Z,22.30
2022-09-20T23:08:41.149Z,22.30
2022-09-20T23:11:07.854Z,22.30
2022-09-20T23:13:34.926Z,22.30
2022-09-20T23:16:09.335Z,22.30
2022-09-20T23:18:35.976Z,22.30
2022-09-20T23:21:02.594Z,22.30
2022-09-20T23:23:29.459Z,22.30
2022-09-20T23:25:56.783Z,22.30
2022-09-20T23:28:23.545Z,22.30
2022-09-20T23:30:50.205Z,22.30
2022-09-20T23:33:16.915Z,22.30
2022-09-20T23:35:44.545Z,22.30
2022-09-20T23:38:11.654Z,22.20
2022-09-20T23:40:38.380Z,22.20
2022-09-20T23:43:05.006Z,22.20
2022-09-20T23:45:31.629Z,22.30
2022-09-20T23:47:58.263Z,22.20
2022-09-20T23:50:24.829Z,22.20
2022-09-20T23:52:51.665Z,22.20
2022-09-20T23:55:18.226Z,22.20
2022-09-20T23:57:45.147Z,22.20
